createdAt,value
2022-12-31T00:00:38.912Z,13.60
2022-12-31T00:02:42.610Z,13.61
2022-12-31T00:04:46.039Z,13.60
2022-12-31T00:06:49.347Z,13.58
2022-12-31T00:08:55.615Z,13.62
2022-12-31T00:10:58.803Z,13.61
2022-12-31T00:13:04.141Z,13.59
2022-12-31T00:15:08.432Z,13.60
2022-12-31T00:17:12.022Z,13.60
2022-12-31T00:19:15.254Z,13.60
2022-12-31T00:21:20.987Z,13.64
2022-12-31T00:23:24.028Z,13.65
2022-12-31T00:25:28.499Z,13.71
2022-12-31T00:27:31.797Z,13.74
2022-12-31T00:29:35.133Z,13.74
2022-12-31T00:31:39.536Z,13.80
2022-12-31T00:33:43.934Z,13.81
2022-12-31T00:35:47.091Z,13.82
2022-12-31T00:37:52.673Z,13.84
2022-12-31T00:39:55.858Z,13.85
2022-12-31T00:42:00.437Z,13.85
2022-12-31T00:44:03.879Z,13.89
2022-12-31T00:46:07.923Z,13.94
2022-12-31T00:48:11.506Z,13.96
2022-12-31T00:50:14.610Z,13.97
2022-12-31T00:52:18.319Z,13.96
2022-12-31T00:54:21.437Z,13.98
2022-12-31T00:56:25.983Z,14.03
2022-12-31T00:58:30.693Z,14.01
2022-12-31T01:00:33.817Z,14.04
2022-12-31T01:02:37.086Z,14.04
2022-12-31T01:04:40.294Z,14.04
2022-12-31T01:06:44.167Z,14.06
2022-12-31T01:08:49.844Z,14.05
2022-12-31T01:11:10.802Z,14.06
2022-12-31T01:13:14.216Z,14.09
2022-12-31T01:15:18.950Z,14.09
2022-12-31T01:17:21.997Z,14.10
2022-12-31T01:19:27.289Z,14.11
2022-12-31T01:21:31.232Z,14.10
2022-12-31T01:23:34.425Z,14.10
2022-12-31T01:25:38.242Z,14.10
2022-12-31T01:27:41.356Z,14.11
2022-12-31T01:29:44.725Z,14.09
2022-12-31T01:31:49.142Z,14.10
2022-12-31T01:33:52.836Z,14.09
2022-12-31T01:35:55.985Z,14.10
2022-12-31T01:37:59.202Z,14.13
2022-12-31T01:40:02.238Z,14.14
2022-12-31T01:42:05.937Z,14.14
2022-12-31T01:44:42.398Z,14.13
2022-12-31T01:46:49.567Z,14.15
2022-12-31T01:48:54.518Z,14.14
2022-12-31T01:50:57.673Z,14.14
2022-12-31T01:53:03.547Z,14.16
2022-12-31T01:55:11.542Z,14.18
2022-12-31T01:57:15.202Z,14.16
2022-12-31T01:59:19.106Z,14.15
2022-12-31T02:01:25.875Z,14.18
2022-12-31T02:03:30.864Z,14.20
2022-12-31T02:05:39.837Z,14.19
2022-12-31T02:07:43.066Z,14.19
2022-12-31T02:09:46.250Z,14.16
2022-12-31T02:11:49.360Z,14.16
2022-12-31T02:13:58.281Z,14.14
2022-12-31T02:16:07.130Z,14.13
2022-12-31T02:18:15.833Z,14.11
2022-12-31T02:20:47.417Z,14.08
2022-12-31T02:23:07.567Z,14.07
2022-12-31T02:25:24.586Z,13.98
2022-12-31T02:27:39.061Z,13.95
2022-12-31T02:30:17.269Z,13.95
2022-12-31T02:32:24.963Z,13.88
2022-12-31T02:34:32.150Z,13.86
2022-12-31T02:36:37.790Z,13.85
2022-12-31T02:38:46.223Z,13.83
2022-12-31T02:40:49.554Z,13.80
2022-12-31T02:42:55.587Z,13.76
2022-12-31T02:44:59.159Z,13.77
2022-12-31T02:47:13.287Z,13.80
2022-12-31T02:49:21.915Z,13.83
2022-12-31T02:51:35.693Z,13.88
2022-12-31T02:54:12.201Z,13.89
2022-12-31T02:56:18.203Z,13.91
2022-12-31T02:58:45.636Z,13.95
2022-12-31T03:01:09.356Z,13.94
2022-12-31T03:03:13.156Z,13.91
2022-12-31T03:05:19.532Z,13.93
2022-12-31T03:07:25.151Z,13.89
2022-12-31T03:09:28.202Z,13.91
2022-12-31T03:11:48.594Z,13.92
2022-12-31T03:13:51.779Z,13.92
2022-12-31T03:15:54.890Z,13.94
2022-12-31T03:18:00.505Z,13.97
2022-12-31T03:20:21.129Z,13.98
2022-12-31T03:22:27.405Z,14.02
2022-12-31T03:24:48.027Z,14.00
2022-12-31T03:26:51.173Z,13.98
2022-12-31T03:28:54.250Z,13.98
2022-12-31T03:30:59.415Z,14.00
2022-12-31T03:33:03.233Z,13.98
2022-12-31T03:35:07.212Z,14.03
2022-12-31T03:37:11.893Z,14.03
2022-12-31T03:39:16.344Z,14.07
2022-12-31T03:41:19.431Z,14.11
2022-12-31T03:43:22.639Z,14.13
2022-12-31T03:45:25.756Z,14.12
2022-12-31T03:47:29.068Z,14.12
2022-12-31T03:49:32.088Z,14.12
2022-12-31T03:51:35.193Z,14.09
2022-12-31T03:53:38.289Z,14.07
2022-12-31T03:55:43.413Z,14.06
2022-12-31T03:57:46.548Z,14.07
2022-12-31T03:59:49.717Z,14.09
2022-12-31T04:01:53.011Z,14.05
2022-12-31T04:03:56.503Z,14.07
2022-12-31T04:05:59.661Z,14.07
2022-12-31T04:08:03.078Z,14.15
2022-12-31T04:10:07.993Z,14.20
2022-12-31T04:12:12.507Z,14.21
2022-12-31T04:14:17.228Z,14.25
2022-12-31T04:16:20.301Z,14.31
2022-12-31T04:18:23.371Z,14.36
2022-12-31T04:20:26.465Z,14.39
2022-12-31T04:22:29.463Z,14.43
2022-12-31T04:24:32.786Z,14.45
2022-12-31T04:26:36.102Z,14.52
2022-12-31T04:28:40.629Z,14.55
2022-12-31T04:30:43.625Z,14.60
2022-12-31T04:32:46.733Z,14.62
2022-12-31T04:34:50.038Z,14.68
2022-12-31T04:36:53.176Z,14.70
2022-12-31T04:38:57.184Z,14.73
2022-12-31T04:41:18.309Z,14.76
2022-12-31T04:43:21.368Z,14.79
2022-12-31T04:45:25.855Z,14.85
2022-12-31T04:47:28.888Z,14.91
2022-12-31T04:49:32.065Z,14.96
2022-12-31T04:51:35.628Z,15.03
2022-12-31T04:53:38.826Z,15.04
2022-12-31T04:55:42.367Z,15.08
2022-12-31T04:57:45.447Z,15.07
2022-12-31T04:59:48.433Z,15.08
2022-12-31T05:01:53.067Z,15.09
2022-12-31T05:03:56.198Z,15.11
2022-12-31T05:06:02.683Z,15.15
2022-12-31T05:08:06.322Z,15.18
2022-12-31T05:10:09.552Z,15.19
2022-12-31T05:12:12.669Z,15.20
2022-12-31T05:14:15.820Z,15.24
2022-12-31T05:16:18.875Z,15.25
2022-12-31T05:18:23.515Z,15.26
2022-12-31T05:20:26.569Z,15.26
2022-12-31T05:22:30.188Z,15.23
2022-12-31T05:24:33.387Z,15.21
2022-12-31T05:26:36.411Z,15.23
2022-12-31T05:28:39.858Z,15.25
2022-12-31T05:30:43.294Z,15.29
2022-12-31T05:32:46.485Z,15.29
2022-12-31T05:34:53.551Z,15.27
2022-12-31T05:36:59.181Z,15.28
2022-12-31T05:39:02.271Z,15.29
2022-12-31T05:41:07.309Z,15.28
2022-12-31T05:43:10.322Z,15.24
2022-12-31T05:45:14.059Z,15.26
2022-12-31T05:47:17.229Z,15.24
2022-12-31T05:49:20.181Z,15.24
2022-12-31T05:51:24.541Z,15.23
2022-12-31T05:53:27.714Z,15.27
2022-12-31T05:55:30.764Z,15.29
2022-12-31T05:57:34.087Z,15.29
2022-12-31T05:59:37.225Z,15.29
2022-12-31T06:01:40.700Z,15.31
2022-12-31T06:03:43.843Z,15.32
2022-12-31T06:05:47.065Z,15.28
2022-12-31T06:07:51.608Z,15.26
2022-12-31T06:09:54.849Z,15.28
2022-12-31T06:11:57.896Z,15.27
2022-12-31T06:14:00.908Z,15.28
2022-12-31T06:16:06.876Z,15.26
2022-12-31T06:18:09.923Z,15.28
2022-12-31T06:20:13.511Z,15.26
2022-12-31T06:22:16.624Z,15.24
2022-12-31T06:24:21.351Z,15.25
2022-12-31T06:26:24.338Z,15.25
2022-12-31T06:28:27.477Z,15.24
2022-12-31T06:30:30.586Z,15.23
2022-12-31T06:32:36.052Z,15.22
2022-12-31T06:34:39.098Z,15.25
2022-12-31T06:36:42.369Z,15.25
2022-12-31T06:38:45.669Z,15.26
2022-12-31T06:40:50.176Z,15.27
2022-12-31T06:42:59.726Z,15.23
2022-12-31T06:45:03.504Z,15.23
2022-12-31T06:47:06.707Z,15.22
2022-12-31T06:49:09.782Z,15.17
2022-12-31T06:51:17.232Z,15.17
2022-12-31T06:53:20.596Z,15.19
2022-12-31T06:55:24.325Z,15.19
2022-12-31T06:57:29.497Z,15.18
2022-12-31T06:59:33.131Z,15.18
2022-12-31T07:01:49.978Z,15.15
2022-12-31T07:03:58.134Z,15.12
2022-12-31T07:06:04.800Z,15.07
2022-12-31T07:08:16.910Z,15.10
2022-12-31T07:10:29.707Z,15.13
2022-12-31T07:12:42.812Z,15.13
2022-12-31T07:14:47.878Z,15.18
2022-12-31T07:16:57.564Z,15.19
2022-12-31T07:19:11.209Z,15.20
2022-12-31T07:21:16.383Z,15.21
2022-12-31T07:23:20.341Z,15.24
2022-12-31T07:25:24.449Z,15.28
2022-12-31T07:27:44.476Z,15.27
2022-12-31T07:30:00.283Z,15.30
2022-12-31T07:32:12.779Z,15.31
2022-12-31T07:34:21.472Z,15.34
2022-12-31T07:36:47.125Z,15.36
2022-12-31T07:38:55.004Z,15.39
2022-12-31T07:41:09.345Z,15.41
2022-12-31T07:43:19.189Z,15.46
2022-12-31T07:45:27.397Z,15.48
2022-12-31T07:47:31.041Z,15.50
2022-12-31T07:49:35.383Z,15.51
2022-12-31T07:51:39.109Z,15.56
2022-12-31T07:53:42.113Z,15.57
2022-12-31T07:55:45.270Z,15.58
2022-12-31T07:57:53.076Z,15.62
2022-12-31T08:00:06.396Z,15.63
2022-12-31T08:02:23.323Z,15.63
2022-12-31T08:04:30.004Z,15.65
2022-12-31T08:06:39.869Z,15.68
2022-12-31T08:08:50.860Z,15.69
2022-12-31T08:11:03.278Z,15.75
2022-12-31T08:13:10.944Z,15.78
2022-12-31T08:15:18.542Z,15.82
2022-12-31T08:17:22.132Z,15.85
2022-12-31T08:19:28.351Z,15.87
2022-12-31T08:21:37.825Z,15.91
2022-12-31T08:23:45.578Z,15.94
2022-12-31T08:26:00.511Z,15.98
2022-12-31T08:28:09.120Z,16.03
2022-12-31T08:30:16.287Z,16.09
2022-12-31T08:32:24.038Z,16.15
2022-12-31T08:34:32.418Z,16.21
2022-12-31T08:36:45.388Z,16.23
2022-12-31T08:38:52.378Z,16.26
2022-12-31T08:41:00.894Z,16.31
2022-12-31T08:43:14.018Z,16.33
2022-12-31T08:45:23.911Z,16.35
2022-12-31T08:47:38.189Z,16.36
2022-12-31T08:49:53.008Z,16.37
2022-12-31T08:54:19.679Z,16.38
2022-12-31T08:56:28.408Z,16.42
2022-12-31T08:58:40.973Z,16.40
2022-12-31T09:00:45.741Z,16.41
2022-12-31T09:03:02.533Z,16.43
2022-12-31T09:05:12.653Z,16.45
2022-12-31T09:07:17.557Z,16.49
2022-12-31T09:09:25.204Z,16.50
2022-12-31T09:11:33.553Z,16.51
2022-12-31T09:13:47.039Z,16.49
2022-12-31T09:15:56.222Z,16.50
2022-12-31T09:17:59.952Z,16.53
2022-12-31T09:20:03.683Z,16.56
2022-12-31T09:22:07.259Z,16.58
2022-12-31T09:24:13.276Z,16.56
2022-12-31T09:26:30.297Z,16.65
2022-12-31T09:28:39.559Z,16.82
2022-12-31T09:30:49.170Z,16.94
2022-12-31T09:33:03.127Z,17.02
2022-12-31T09:35:14.092Z,17.16
2022-12-31T09:37:21.838Z,17.25
2022-12-31T09:39:32.635Z,17.32
2022-12-31T09:41:58.183Z,17.35
2022-12-31T09:44:28.920Z,17.38
2022-12-31T09:47:08.514Z,17.32
2022-12-31T09:49:51.422Z,17.27
2022-12-31T09:51:59.151Z,17.27
2022-12-31T09:54:25.154Z,17.19
2022-12-31T09:56:31.109Z,17.18
2022-12-31T09:58:42.462Z,17.27
2022-12-31T10:00:53.488Z,17.38
2022-12-31T10:03:17.491Z,17.48
2022-12-31T10:05:36.505Z,17.58
2022-12-31T10:07:52.803Z,17.62
2022-12-31T10:10:07.418Z,17.71
2022-12-31T10:12:43.920Z,17.79
2022-12-31T10:14:58.128Z,17.88
2022-12-31T10:17:12.483Z,18.05
2022-12-31T10:19:52.898Z,18.13
2022-12-31T10:22:06.360Z,18.18
2022-12-31T10:24:44.630Z,18.19
2022-12-31T10:26:57.540Z,18.16
2022-12-31T10:29:08.395Z,18.21
2022-12-31T10:31:15.643Z,18.23
2022-12-31T10:33:29.997Z,18.20
2022-12-31T10:35:40.883Z,18.15
2022-12-31T10:37:49.764Z,18.22
2022-12-31T10:40:01.842Z,18.29
2022-12-31T10:42:35.962Z,18.38
2022-12-31T10:45:09.582Z,18.51
2022-12-31T10:47:47.808Z,18.64
2022-12-31T10:50:29.603Z,18.77
2022-12-31T10:53:02.029Z,18.84
2022-12-31T10:55:27.431Z,18.90
2022-12-31T10:57:43.097Z,18.90
2022-12-31T11:00:15.565Z,18.91
2022-12-31T11:02:37.843Z,18.90
2022-12-31T11:05:13.638Z,18.89
2022-12-31T11:07:43.639Z,18.87
2022-12-31T11:10:21.410Z,18.89
2022-12-31T11:12:42.059Z,18.81
2022-12-31T11:15:03.121Z,18.81
2022-12-31T11:17:22.552Z,18.81
2022-12-31T11:19:30.985Z,18.80
2022-12-31T11:21:44.967Z,18.81
2022-12-31T11:23:56.298Z,18.81
2022-12-31T11:26:08.713Z,18.78
2022-12-31T11:28:41.944Z,18.75
2022-12-31T11:30:56.963Z,18.68
2022-12-31T11:33:19.087Z,18.67
2022-12-31T11:38:27.909Z,18.72
2022-12-31T11:43:39.412Z,18.80
2022-12-31T11:46:54.400Z,18.85
2022-12-31T11:49:52.230Z,18.93
2022-12-31T11:52:11.867Z,18.92
2022-12-31T11:54:34.029Z,18.97
2022-12-31T11:56:41.752Z,18.98
2022-12-31T12:01:12.790Z,19.00
2022-12-31T12:03:16.434Z,18.99
2022-12-31T12:05:22.152Z,18.99
2022-12-31T12:07:25.373Z,19.02
2022-12-31T12:09:30.466Z,19.04
2022-12-31T12:11:36.752Z,19.08
2022-12-31T12:13:39.899Z,19.10
2022-12-31T12:15:48.295Z,19.09
2022-12-31T12:17:54.129Z,19.13
2022-12-31T12:19:57.882Z,19.15
2022-12-31T12:22:11.026Z,19.18
2022-12-31T12:24:21.096Z,19.20
2022-12-31T12:26:29.807Z,19.22
2022-12-31T12:28:44.654Z,19.26
2022-12-31T12:30:55.978Z,19.28
2022-12-31T12:33:01.239Z,19.27
2022-12-31T12:35:15.375Z,19.27
2022-12-31T12:37:32.351Z,19.23
2022-12-31T12:39:35.993Z,19.23
2022-12-31T12:41:39.096Z,19.24
2022-12-31T12:43:42.347Z,19.26
2022-12-31T12:45:52.124Z,19.29
2022-12-31T12:48:00.132Z,19.32
2022-12-31T12:50:03.342Z,19.34
2022-12-31T12:52:33.028Z,19.32
2022-12-31T12:54:44.772Z,19.32
2022-12-31T12:56:53.077Z,19.35
2022-12-31T12:59:17.461Z,19.39
2022-12-31T13:01:27.370Z,19.41
2022-12-31T13:04:33.452Z,19.38
2022-12-31T13:06:38.084Z,19.39
2022-12-31T13:08:56.288Z,19.37
2022-12-31T13:11:15.703Z,19.40
2022-12-31T13:13:25.832Z,19.40
2022-12-31T13:15:33.753Z,19.42
2022-12-31T13:17:53.335Z,19.41
2022-12-31T13:20:04.929Z,19.41
2022-12-31T13:22:12.771Z,19.42
2022-12-31T13:24:28.386Z,19.41
2022-12-31T13:26:35.186Z,19.40
2022-12-31T13:28:42.345Z,19.40
2022-12-31T13:30:49.289Z,19.41
2022-12-31T13:32:54.433Z,19.43
2022-12-31T13:35:01.995Z,19.43
2022-12-31T13:37:08.586Z,19.41
2022-12-31T13:39:16.729Z,19.39
2022-12-31T13:41:24.021Z,19.37
2022-12-31T13:43:37.074Z,19.33
2022-12-31T13:45:42.716Z,19.32
2022-12-31T13:47:48.081Z,19.27
2022-12-31T13:49:56.390Z,19.24
2022-12-31T13:52:04.297Z,19.24
2022-12-31T13:54:19.292Z,19.25
2022-12-31T13:56:25.741Z,19.22
2022-12-31T13:58:38.664Z,19.17
2022-12-31T14:01:01.468Z,19.16
2022-12-31T14:03:13.399Z,19.11
2022-12-31T14:05:20.192Z,19.12
2022-12-31T14:07:35.381Z,19.09
2022-12-31T14:09:42.643Z,19.06
2022-12-31T14:12:02.351Z,19.05
2022-12-31T14:14:14.940Z,19.03
2022-12-31T14:16:24.408Z,19.01
2022-12-31T14:18:33.256Z,18.99
2022-12-31T14:20:43.770Z,18.98
2022-12-31T14:22:51.795Z,18.97
2022-12-31T14:24:56.190Z,18.97
2022-12-31T14:27:02.311Z,18.97
2022-12-31T14:29:15.571Z,18.94
2022-12-31T14:31:26.553Z,18.89
2022-12-31T14:33:43.947Z,18.87
2022-12-31T14:35:56.187Z,18.83
2022-12-31T14:38:07.298Z,18.77
2022-12-31T14:40:19.465Z,18.72
2022-12-31T14:42:29.851Z,18.64
2022-12-31T14:44:47.958Z,18.54
2022-12-31T14:47:01.041Z,18.45
2022-12-31T14:49:17.140Z,18.36
2022-12-31T14:51:20.757Z,18.27
2022-12-31T14:53:27.530Z,18.20
2022-12-31T14:55:32.164Z,18.08
2022-12-31T14:58:01.737Z,18.02
2022-12-31T15:00:21.610Z,17.96
2022-12-31T15:02:28.608Z,17.88
2022-12-31T15:04:33.941Z,17.79
2022-12-31T15:06:52.787Z,17.72
2022-12-31T15:09:08.302Z,17.68
2022-12-31T15:11:25.185Z,17.64
2022-12-31T15:13:33.557Z,17.59
2022-12-31T15:15:44.737Z,17.54
2022-12-31T15:17:54.978Z,17.48
2022-12-31T15:20:29.252Z,17.45
2022-12-31T15:22:38.762Z,17.42
2022-12-31T15:24:46.085Z,17.40
2022-12-31T15:26:51.543Z,17.33
2022-12-31T15:28:59.616Z,17.30
2022-12-31T15:31:07.961Z,17.26
2022-12-31T15:33:21.899Z,17.17
2022-12-31T15:35:29.130Z,17.14
2022-12-31T15:37:34.233Z,17.13
2022-12-31T15:39:43.692Z,17.12
2022-12-31T15:42:35.508Z,17.10
2022-12-31T15:44:19.264Z,17.06
2022-12-31T15:46:25.112Z,17.06
2022-12-31T15:48:33.525Z,17.03
2022-12-31T15:50:38.362Z,17.00
2022-12-31T15:52:44.250Z,16.98
2022-12-31T15:54:49.632Z,16.99
2022-12-31T15:56:55.449Z,16.98
2022-12-31T15:59:00.823Z,16.95
2022-12-31T16:01:10.400Z,16.88
2022-12-31T16:03:21.567Z,16.81
2022-12-31T16:05:26.447Z,16.78
2022-12-31T16:07:31.952Z,16.76
2022-12-31T16:09:36.332Z,16.76
2022-12-31T16:11:41.810Z,16.76
2022-12-31T16:13:49.455Z,16.77
2022-12-31T16:15:57.452Z,16.76
2022-12-31T16:18:02.992Z,16.76
2022-12-31T16:20:23.523Z,16.74
2022-12-31T16:22:28.728Z,16.73
2022-12-31T16:24:33.784Z,16.73
2022-12-31T16:26:47.332Z,16.72
2022-12-31T16:28:52.134Z,16.71
2022-12-31T16:31:01.102Z,16.69
2022-12-31T16:33:05.886Z,16.69
2022-12-31T16:35:23.899Z,16.68
2022-12-31T16:37:29.046Z,16.70
2022-12-31T16:39:35.587Z,16.70
2022-12-31T16:41:43.524Z,16.69
2022-12-31T16:43:48.590Z,16.69
2022-12-31T16:45:54.076Z,16.68
2022-12-31T16:47:58.732Z,16.65
2022-12-31T16:50:05.737Z,16.64
2022-12-31T16:52:16.971Z,16.63
2022-12-31T16:54:29.887Z,16.61
2022-12-31T16:56:36.405Z,16.65
2022-12-31T16:58:45.250Z,16.64
2022-12-31T17:00:49.239Z,16.64
2022-12-31T17:03:02.090Z,16.66
2022-12-31T17:05:06.203Z,16.69
2022-12-31T17:07:42.721Z,16.69
2022-12-31T17:09:45.830Z,16.68
2022-12-31T17:11:57.048Z,16.58
2022-12-31T17:14:10.202Z,16.46
2022-12-31T17:16:19.024Z,16.31
2022-12-31T17:18:25.324Z,16.15
2022-12-31T17:20:31.189Z,16.10
2022-12-31T17:22:40.924Z,16.05
2022-12-31T17:24:44.705Z,15.99
2022-12-31T17:26:48.417Z,15.96
2022-12-31T17:28:53.625Z,15.95
2022-12-31T17:31:03.669Z,15.97
2022-12-31T17:33:31.438Z,16.00
2022-12-31T17:35:36.942Z,15.99
2022-12-31T17:37:42.703Z,15.98
2022-12-31T17:39:50.146Z,15.96
2022-12-31T17:42:00.665Z,15.92
2022-12-31T17:44:06.263Z,15.86
2022-12-31T17:46:13.168Z,15.83
2022-12-31T17:48:19.120Z,15.77
2022-12-31T17:50:27.131Z,15.74
2022-12-31T17:52:31.375Z,15.69
2022-12-31T17:54:35.146Z,15.63
2022-12-31T17:56:38.585Z,15.63
2022-12-31T17:58:45.103Z,15.62
2022-12-31T18:00:48.597Z,15.58
2022-12-31T18:02:52.200Z,15.55
2022-12-31T18:04:55.439Z,15.52
2022-12-31T18:06:59.998Z,15.49
2022-12-31T18:09:03.721Z,15.44
2022-12-31T18:11:07.139Z,15.41
2022-12-31T18:13:15.940Z,15.37
2022-12-31T18:15:21.352Z,15.32
2022-12-31T18:17:24.746Z,15.31
2022-12-31T18:20:03.100Z,15.24
2022-12-31T18:21:51.673Z,15.21
2022-12-31T18:25:59.377Z,15.10
2022-12-31T18:28:04.134Z,14.99
2022-12-31T18:30:10.446Z,14.91
2022-12-31T18:32:21.170Z,14.84
2022-12-31T18:34:29.586Z,14.76
2022-12-31T18:36:32.884Z,14.68
2022-12-31T18:38:36.138Z,14.60
2022-12-31T18:40:44.484Z,14.55
2022-12-31T18:42:48.216Z,14.51
2022-12-31T18:44:51.426Z,14.50
2022-12-31T18:46:56.213Z,14.46
2022-12-31T18:48:59.357Z,14.47
2022-12-31T18:51:04.980Z,14.50
2022-12-31T18:53:08.586Z,14.49
2022-12-31T18:55:23.572Z,14.50
2022-12-31T18:57:28.078Z,14.48
2022-12-31T18:59:31.729Z,14.45
2022-12-31T19:01:36.604Z,14.38
2022-12-31T19:03:39.947Z,14.34
2022-12-31T19:05:44.599Z,14.30
2022-12-31T19:07:48.611Z,14.31
2022-12-31T19:09:58.149Z,14.30
2022-12-31T19:12:01.689Z,14.33
2022-12-31T19:14:23.064Z,14.28
2022-12-31T19:16:27.843Z,14.21
2022-12-31T19:18:31.664Z,14.19
2022-12-31T19:20:35.657Z,14.15
2022-12-31T19:22:38.850Z,14.01
2022-12-31T19:24:42.181Z,13.92
2022-12-31T19:26:45.357Z,13.86
2022-12-31T19:28:49.591Z,13.79
2022-12-31T19:30:56.081Z,13.71
2022-12-31T19:33:21.560Z,13.65
2022-12-31T19:35:25.646Z,13.64
2022-12-31T19:37:31.477Z,13.57
2022-12-31T19:39:39.695Z,13.51
2022-12-31T19:41:43.692Z,13.45
2022-12-31T19:44:14.263Z,13.40
2022-12-31T19:46:20.368Z,13.38
2022-12-31T19:48:32.392Z,13.38
2022-12-31T19:50:36.171Z,13.40
2022-12-31T19:52:39.262Z,13.39
2022-12-31T19:54:42.398Z,13.37
2022-12-31T19:56:45.440Z,13.37
2022-12-31T19:58:48.746Z,13.35
2022-12-31T20:00:58.232Z,13.28
2022-12-31T20:03:08.063Z,13.25
2022-12-31T20:05:12.374Z,13.23
2022-12-31T20:07:15.586Z,13.20
2022-12-31T20:09:18.785Z,13.22
2022-12-31T20:11:23.854Z,13.21
2022-12-31T20:13:27.334Z,13.25
2022-12-31T20:15:30.392Z,13.23
2022-12-31T20:17:33.452Z,13.21
2022-12-31T20:19:37.921Z,13.21
2022-12-31T20:21:41.903Z,13.19
2022-12-31T20:23:45.615Z,13.18
2022-12-31T20:25:57.953Z,13.17
2022-12-31T20:28:01.592Z,13.18
2022-12-31T20:30:05.190Z,13.18
2022-12-31T20:32:08.244Z,13.14
2022-12-31T20:34:11.829Z,13.14
2022-12-31T20:36:17.652Z,13.13
2022-12-31T20:38:21.171Z,13.15
2022-12-31T20:40:24.336Z,13.13
2022-12-31T20:42:27.451Z,13.15
2022-12-31T20:44:30.721Z,13.14
2022-12-31T20:46:34.140Z,13.17
2022-12-31T20:48:37.480Z,13.19
2022-12-31T20:50:40.485Z,13.20
2022-12-31T20:52:45.574Z,13.19
2022-12-31T20:54:48.659Z,13.16
2022-12-31T20:56:51.817Z,13.09
2022-12-31T20:58:54.880Z,13.08
2022-12-31T21:00:58.492Z,13.19
2022-12-31T21:03:14.186Z,13.32
2022-12-31T21:05:22.057Z,13.43
2022-12-31T21:07:25.348Z,13.52
2022-12-31T21:09:30.016Z,13.57
2022-12-31T21:11:50.895Z,13.66
2022-12-31T21:13:54.275Z,13.80
2022-12-31T21:15:59.086Z,13.94
2022-12-31T21:18:02.585Z,13.99
2022-12-31T21:20:07.116Z,13.89
2022-12-31T21:22:10.377Z,13.77
2022-12-31T21:24:20.151Z,13.68
2022-12-31T21:26:27.000Z,13.59
2022-12-31T21:28:30.770Z,13.53
2022-12-31T21:30:35.253Z,13.54
2022-12-31T21:32:38.433Z,13.51
2022-12-31T21:34:41.723Z,13.43
2022-12-31T21:36:44.959Z,13.37
2022-12-31T21:38:48.059Z,13.28
2022-12-31T21:40:51.405Z,13.23
2022-12-31T21:42:55.875Z,13.18
2022-12-31T21:45:00.147Z,13.15
2022-12-31T21:47:34.902Z,13.10
2022-12-31T21:49:38.744Z,13.04
2022-12-31T21:51:55.759Z,12.98
2022-12-31T21:54:00.482Z,12.91
2022-12-31T21:56:09.908Z,12.86
2022-12-31T21:58:26.879Z,12.85
2022-12-31T22:00:49.293Z,12.83
2022-12-31T22:03:10.586Z,12.79
2022-12-31T22:05:21.446Z,12.75
2022-12-31T22:07:28.716Z,12.72
2022-12-31T22:09:32.069Z,12.68
2022-12-31T22:11:35.460Z,12.68
2022-12-31T22:13:40.769Z,12.66
2022-12-31T22:15:44.969Z,12.59
2022-12-31T22:17:48.157Z,12.60
2022-12-31T22:20:25.187Z,12.61
2022-12-31T22:22:14.435Z,12.53
2022-12-31T22:24:17.727Z,12.51
2022-12-31T22:26:22.279Z,12.50
2022-12-31T22:28:38.218Z,12.47
2022-12-31T22:30:43.860Z,12.46
2022-12-31T22:32:47.000Z,12.40
2022-12-31T22:34:50.071Z,12.42
2022-12-31T22:36:53.437Z,12.40
2022-12-31T22:38:58.197Z,12.40
2022-12-31T22:41:08.259Z,12.39
2022-12-31T22:43:11.252Z,12.41
2022-12-31T22:45:14.370Z,12.42
2022-12-31T22:47:18.999Z,12.43
2022-12-31T22:49:22.292Z,12.46
2022-12-31T22:51:27.188Z,12.47
2022-12-31T22:53:34.017Z,12.46
2022-12-31T22:55:37.152Z,12.45
2022-12-31T22:57:40.092Z,12.40
2022-12-31T22:59:43.692Z,12.36
2022-12-31T23:01:46.711Z,12.34
2022-12-31T23:03:52.386Z,12.26
2022-12-31T23:05:55.636Z,12.23
2022-12-31T23:07:59.066Z,12.23
2022-12-31T23:10:19.883Z,12.22
2022-12-31T23:12:22.940Z,12.20
2022-12-31T23:14:43.481Z,12.20
2022-12-31T23:17:31.414Z,12.15
2022-12-31T23:19:47.008Z,12.11
2022-12-31T23:22:07.811Z,12.09
2022-12-31T23:24:19.064Z,12.06
2022-12-31T23:26:24.617Z,12.03
2022-12-31T23:28:27.905Z,11.99
2022-12-31T23:30:31.057Z,11.96
2022-12-31T23:32:34.417Z,11.93
2022-12-31T23:34:38.918Z,11.92
2022-12-31T23:36:42.096Z,11.91
2022-12-31T23:38:45.450Z,11.91
2022-12-31T23:40:48.826Z,11.86
2022-12-31T23:42:51.774Z,11.88
2022-12-31T23:44:54.824Z,11.87
2022-12-31T23:46:58.021Z,11.86
2022-12-31T23:49:01.523Z,11.86
2022-12-31T23:51:06.254Z,11.87
2022-12-31T23:53:09.308Z,11.87
2022-12-31T23:55:12.701Z,11.88
2022-12-31T23:57:15.959Z,11.92
2022-12-31T23:59:19.212Z,11.92
